createdAt,value
2018-12-11T00:00:14.943Z,6.40
2018-12-11T00:02:42.409Z,7.07
2018-12-11T00:05:09.857Z,7.03
2018-12-11T00:07:37.327Z,5.70
2018-12-11T00:10:05.342Z,6.17
2018-12-11T00:12:32.806Z,6.30
2018-12-11T00:15:00.253Z,6.65
2018-12-11T00:17:27.725Z,6.27
2018-12-11T00:19:55.165Z,5.23
2018-12-11T00:22:22.615Z,5.75
2018-12-11T00:24:50.053Z,6.30
2018-12-11T00:27:17.511Z,4.53
2018-12-11T00:29:44.954Z,4.17
2018-12-11T00:32:12.401Z,5.00
2018-12-11T00:34:39.867Z,6.53
2018-12-11T00:37:07.325Z,4.80
2018-12-11T00:39:34.782Z,3.60
2018-12-11T00:42:02.226Z,4.57
2018-12-11T00:44:29.716Z,3.30
2018-12-11T00:46:57.159Z,5.23
2018-12-11T00:49:24.625Z,5.60
2018-12-11T00:51:52.076Z,4.80
2018-12-11T00:54:19.538Z,4.90
2018-12-11T00:56:46.988Z,4.78
2018-12-11T00:59:14.449Z,4.67
2018-12-11T01:01:41.906Z,4.07
2018-12-11T01:04:09.369Z,6.17
2018-12-11T01:06:36.812Z,5.50
2018-12-11T01:09:06.026Z,5.20
2018-12-11T01:11:33.470Z,5.45
2018-12-11T01:14:00.924Z,5.83
2018-12-11T01:16:28.373Z,6.97
2018-12-11T01:18:55.809Z,6.40
2018-12-11T01:21:23.269Z,6.03
2018-12-11T01:23:50.729Z,7.33
2018-12-11T01:26:18.200Z,5.12
2018-12-11T01:28:45.639Z,6.20
2018-12-11T01:31:13.100Z,5.70
2018-12-11T01:33:40.543Z,6.33
2018-12-11T01:36:07.999Z,6.43
2018-12-11T01:38:35.453Z,5.33
2018-12-11T01:41:02.914Z,6.07
2018-12-11T01:43:30.353Z,5.33
2018-12-11T01:45:57.823Z,5.40
2018-12-11T01:48:25.269Z,4.80
2018-12-11T01:50:52.730Z,5.60
2018-12-11T01:53:20.173Z,4.65
2018-12-11T01:55:47.642Z,4.93
2018-12-11T01:58:15.084Z,4.30
2018-12-11T02:00:42.538Z,5.50
2018-12-11T02:03:10.422Z,4.75
2018-12-11T02:05:37.857Z,4.67
2018-12-11T02:08:05.320Z,4.77
2018-12-11T02:10:32.754Z,5.07
2018-12-11T02:13:00.338Z,5.80
2018-12-11T02:15:27.870Z,4.63
2018-12-11T02:17:55.320Z,4.50
2018-12-11T02:20:22.763Z,4.90
2018-12-11T02:22:50.222Z,3.53
2018-12-11T02:25:17.661Z,4.27
2018-12-11T02:27:45.120Z,4.67
2018-12-11T02:30:12.560Z,3.70
2018-12-11T02:32:40.014Z,3.90
2018-12-11T02:35:07.565Z,3.30
2018-12-11T02:37:35.029Z,3.80
2018-12-11T02:40:02.475Z,4.40
2018-12-11T02:42:29.937Z,4.03
2018-12-11T02:44:57.389Z,3.80
2018-12-11T02:47:24.845Z,3.70
2018-12-11T02:49:52.308Z,3.40
2018-12-11T02:52:19.758Z,3.70
2018-12-11T02:54:47.214Z,3.23
2018-12-11T02:57:14.646Z,3.27
2018-12-11T02:59:42.097Z,2.95
2018-12-11T03:02:09.538Z,4.00
2018-12-11T03:04:36.998Z,3.40
2018-12-11T03:07:04.445Z,3.93
2018-12-11T03:09:31.903Z,3.40
2018-12-11T03:11:59.354Z,4.60
2018-12-11T03:14:26.818Z,3.07
2018-12-11T03:16:54.374Z,3.70
2018-12-11T03:19:21.843Z,3.30
2018-12-11T03:21:49.298Z,4.53
2018-12-11T03:24:16.762Z,3.95
2018-12-11T03:26:44.207Z,4.00
2018-12-11T03:29:11.658Z,3.05
2018-12-11T03:31:39.113Z,4.15
2018-12-11T03:34:06.681Z,3.23
2018-12-11T03:36:34.138Z,4.25
2018-12-11T03:39:01.590Z,4.83
2018-12-11T03:41:29.047Z,4.70
2018-12-11T03:43:56.485Z,3.62
2018-12-11T03:46:23.944Z,3.30
2018-12-11T03:48:51.490Z,4.60
2018-12-11T03:51:19.066Z,4.25
2018-12-11T03:53:46.513Z,3.83
2018-12-11T03:56:13.971Z,2.90
2018-12-11T03:58:41.511Z,5.00
2018-12-11T04:01:08.959Z,5.70
2018-12-11T04:03:36.397Z,4.43
2018-12-11T04:06:03.862Z,4.73
2018-12-11T04:08:31.306Z,4.90
2018-12-11T04:10:58.767Z,5.20
2018-12-11T04:13:26.213Z,5.80
2018-12-11T04:15:53.671Z,6.43
2018-12-11T04:18:21.122Z,5.90
2018-12-11T04:20:48.592Z,5.70
2018-12-11T04:23:16.041Z,5.90
2018-12-11T04:25:43.514Z,5.37
2018-12-11T04:28:10.950Z,6.77
2018-12-11T04:30:38.400Z,5.08
2018-12-11T04:33:05.853Z,6.57
2018-12-11T04:35:33.306Z,6.70
2018-12-11T04:38:00.769Z,7.20
2018-12-11T04:40:28.209Z,8.03
2018-12-11T04:42:55.671Z,6.70
2018-12-11T04:45:23.117Z,8.07
2018-12-11T04:47:50.581Z,5.55
2018-12-11T04:50:18.030Z,4.47
2018-12-11T04:52:45.491Z,8.27
2018-12-11T04:55:12.932Z,7.00
2018-12-11T04:57:40.405Z,5.78
2018-12-11T05:00:07.857Z,6.57
2018-12-11T05:02:35.325Z,9.03
2018-12-11T05:05:02.847Z,6.87
2018-12-11T05:07:30.318Z,8.03
2018-12-11T05:09:57.780Z,7.90
2018-12-11T05:12:25.321Z,6.50
2018-12-11T05:14:52.761Z,5.60
2018-12-11T05:17:20.202Z,6.77
2018-12-11T05:19:47.674Z,8.95
2018-12-11T05:22:15.122Z,7.07
2018-12-11T05:24:42.576Z,8.08
2018-12-11T05:27:10.029Z,7.35
2018-12-11T05:29:37.493Z,6.53
2018-12-11T05:32:04.940Z,10.70
2018-12-11T05:34:32.401Z,8.10
2018-12-11T05:37:00.245Z,8.17
2018-12-11T05:39:27.698Z,8.23
2018-12-11T05:41:55.263Z,8.03
2018-12-11T05:44:22.714Z,8.93
2018-12-11T05:46:50.182Z,6.37
2018-12-11T05:49:17.637Z,7.60
2018-12-11T05:51:45.084Z,6.20
2018-12-11T05:54:12.543Z,8.53
2018-12-11T05:56:40.002Z,6.90
2018-12-11T05:59:07.461Z,6.50
2018-12-11T06:01:34.912Z,6.75
2018-12-11T06:04:02.356Z,8.10
2018-12-11T06:06:29.818Z,7.30
2018-12-11T06:08:57.263Z,7.33
2018-12-11T06:11:24.727Z,6.97
2018-12-11T06:13:52.177Z,7.28
2018-12-11T06:16:20.160Z,4.75
2018-12-11T06:18:47.622Z,9.40
2018-12-11T06:21:15.079Z,7.30
2018-12-11T06:23:42.569Z,8.13
2018-12-11T06:26:10.117Z,4.90
2018-12-11T06:28:37.571Z,6.57
2018-12-11T06:31:05.040Z,5.00
2018-12-11T06:33:32.482Z,6.00
2018-12-11T06:35:59.945Z,5.23
2018-12-11T06:38:27.466Z,7.10
2018-12-11T06:40:54.926Z,6.63
2018-12-11T06:43:22.367Z,5.57
2018-12-11T06:45:49.828Z,4.87
2018-12-11T06:48:17.279Z,6.10
2018-12-11T06:50:44.734Z,7.03
2018-12-11T06:53:12.204Z,6.97
2018-12-11T06:55:39.654Z,6.07
2018-12-11T06:58:07.115Z,8.10
2018-12-11T07:00:34.565Z,6.50
2018-12-11T07:03:02.028Z,5.70
2018-12-11T07:05:29.467Z,3.90
2018-12-11T07:07:56.930Z,7.03
2018-12-11T07:10:24.378Z,5.10
2018-12-11T07:12:51.840Z,5.53
2018-12-11T07:15:19.287Z,6.33
2018-12-11T07:17:46.746Z,6.27
2018-12-11T07:20:14.186Z,8.50
2018-12-11T07:22:44.621Z,6.90
2018-12-11T07:25:12.141Z,6.20
2018-12-11T07:27:39.603Z,3.63
2018-12-11T07:30:07.837Z,6.90
2018-12-11T07:32:35.416Z,5.50
2018-12-11T07:35:02.866Z,5.80
2018-12-11T07:37:30.320Z,3.95
2018-12-11T07:39:57.767Z,4.23
2018-12-11T07:42:25.218Z,7.20
2018-12-11T07:44:52.661Z,5.10
2018-12-11T07:47:20.120Z,5.20
2018-12-11T07:49:47.588Z,6.73
2018-12-11T07:52:15.033Z,4.90
2018-12-11T07:54:42.493Z,4.20
2018-12-11T07:57:09.946Z,5.30
2018-12-11T07:59:37.413Z,3.97
2018-12-11T08:02:05.350Z,6.10
2018-12-11T08:04:32.996Z,4.70
2018-12-11T08:07:00.437Z,5.40
2018-12-11T08:09:27.890Z,5.47
2018-12-11T08:11:55.353Z,4.97
2018-12-11T08:14:22.814Z,5.13
2018-12-11T08:16:50.258Z,5.10
2018-12-11T08:19:17.725Z,4.63
2018-12-11T08:21:45.175Z,6.00
2018-12-11T08:24:13.584Z,5.10
2018-12-11T08:26:41.032Z,3.87
2018-12-11T08:29:08.495Z,5.50
2018-12-11T08:31:35.935Z,3.50
2018-12-11T08:34:03.384Z,6.30
2018-12-11T08:36:30.854Z,5.20
2018-12-11T08:38:58.304Z,4.90
2018-12-11T08:41:26.376Z,4.83
2018-12-11T08:43:54.091Z,7.20
2018-12-11T08:46:22.170Z,4.70
2018-12-11T08:48:50.001Z,5.70
2018-12-11T08:51:17.449Z,4.90
2018-12-11T08:53:44.897Z,5.37
2018-12-11T08:56:12.970Z,6.33
2018-12-11T08:58:40.414Z,5.73
2018-12-11T09:01:08.269Z,5.70
2018-12-11T09:03:35.717Z,5.80
2018-12-11T09:06:03.178Z,6.23
2018-12-11T09:08:30.627Z,5.37
2018-12-11T09:10:58.317Z,5.47
2018-12-11T09:13:25.766Z,6.83
2018-12-11T09:15:53.249Z,6.30
2018-12-11T09:18:20.699Z,6.10
2018-12-11T09:20:48.164Z,5.23
2018-12-11T09:23:15.621Z,5.20
2018-12-11T09:25:43.067Z,5.40
2018-12-11T09:28:11.164Z,5.73
2018-12-11T09:30:39.022Z,7.40
2018-12-11T09:33:06.489Z,6.12
2018-12-11T09:35:33.950Z,3.40
2018-12-11T09:38:01.421Z,2.90
2018-12-11T09:40:28.861Z,4.80
2018-12-11T09:42:56.323Z,4.53
2018-12-11T09:45:23.768Z,4.80
2018-12-11T09:47:51.232Z,5.90
2018-12-11T09:50:18.670Z,6.07
2018-12-11T09:52:46.129Z,4.67
2018-12-11T09:55:13.828Z,6.87
2018-12-11T09:57:41.289Z,4.60
2018-12-11T10:00:08.819Z,6.28
2018-12-11T10:02:36.276Z,6.00
2018-12-11T10:05:04.446Z,5.30
2018-12-11T10:07:31.898Z,5.33
2018-12-11T10:09:59.334Z,5.97
2018-12-11T10:12:26.790Z,6.17
2018-12-11T10:14:54.253Z,6.92
2018-12-11T10:17:21.702Z,5.43
2018-12-11T10:19:49.173Z,6.70
2018-12-11T10:22:16.616Z,6.13
2018-12-11T10:24:44.073Z,6.53
2018-12-11T10:27:11.525Z,6.93
2018-12-11T10:29:38.985Z,6.70
2018-12-11T10:32:06.439Z,6.80
2018-12-11T10:34:33.900Z,6.50
2018-12-11T10:37:01.353Z,5.10
2018-12-11T10:39:28.809Z,6.43
2018-12-11T10:41:56.249Z,6.23
2018-12-11T10:44:23.708Z,5.80
2018-12-11T10:46:51.153Z,6.53
2018-12-11T10:49:18.622Z,4.90
2018-12-11T10:51:46.062Z,4.27
2018-12-11T10:54:13.521Z,4.73
2018-12-11T10:56:40.964Z,6.30
2018-12-11T10:59:08.414Z,4.80
2018-12-11T11:01:37.856Z,5.23
2018-12-11T11:04:05.613Z,4.57
2018-12-11T11:06:33.046Z,3.65
2018-12-11T11:09:00.515Z,3.80
2018-12-11T11:11:27.973Z,4.30
2018-12-11T11:13:56.007Z,4.37
2018-12-11T11:16:23.564Z,3.30
2018-12-11T11:18:51.908Z,4.13
2018-12-11T11:21:19.361Z,4.13
2018-12-11T11:23:46.818Z,4.07
2018-12-11T11:26:14.468Z,3.07
2018-12-11T11:28:41.923Z,5.53
2018-12-11T11:31:09.381Z,4.80
2018-12-11T11:33:36.829Z,5.13
2018-12-11T11:36:04.293Z,4.40
2018-12-11T11:38:31.747Z,4.27
2018-12-11T11:40:59.218Z,3.47
2018-12-11T11:43:26.658Z,4.12
2018-12-11T11:45:54.122Z,3.10
2018-12-11T11:48:21.571Z,3.47
2018-12-11T11:50:49.010Z,3.03
2018-12-11T11:53:16.694Z,4.07
2018-12-11T11:55:44.127Z,3.00
2018-12-11T11:58:11.593Z,4.03
2018-12-11T12:00:39.043Z,5.07
2018-12-11T12:03:06.501Z,3.37
2018-12-11T12:05:33.946Z,2.73
2018-12-11T12:08:01.406Z,3.57
2018-12-11T12:10:28.858Z,3.33
2018-12-11T12:12:56.314Z,3.00
2018-12-11T12:15:23.769Z,2.72
2018-12-11T12:17:51.225Z,2.90
2018-12-11T12:20:19.557Z,2.80
2018-12-11T12:22:47.009Z,2.53
2018-12-11T12:25:14.534Z,2.83
2018-12-11T12:27:42.073Z,2.53
2018-12-11T12:30:09.606Z,2.40
2018-12-11T12:32:37.057Z,2.20
2018-12-11T12:35:04.591Z,3.53
2018-12-11T12:37:32.033Z,2.00
2018-12-11T12:39:59.485Z,3.47
2018-12-11T12:42:26.926Z,2.17
2018-12-11T12:44:54.382Z,2.70
2018-12-11T12:47:22.743Z,2.67
2018-12-11T12:49:50.793Z,2.27
2018-12-11T12:52:18.740Z,2.70
2018-12-11T12:54:46.192Z,2.97
2018-12-11T12:57:13.628Z,1.67
2018-12-11T12:59:41.084Z,2.55
2018-12-11T13:02:08.545Z,2.93
2018-12-11T13:04:36.022Z,2.25
2018-12-11T13:07:03.555Z,2.93
2018-12-11T13:09:31.008Z,2.00
2018-12-11T13:11:58.442Z,2.52
2018-12-11T13:14:25.949Z,2.33
2018-12-11T13:16:53.478Z,3.13
2018-12-11T13:19:20.944Z,3.07
2018-12-11T13:21:48.469Z,2.00
2018-12-11T13:24:15.952Z,2.27
2018-12-11T13:26:43.413Z,3.40
2018-12-11T13:29:10.846Z,3.00
2018-12-11T13:31:38.293Z,2.83
2018-12-11T13:34:05.736Z,1.87
2018-12-11T13:36:33.209Z,2.40
2018-12-11T13:39:00.766Z,2.73
2018-12-11T13:41:28.946Z,2.60
2018-12-11T13:43:56.708Z,2.40
2018-12-11T13:46:24.186Z,2.80
2018-12-11T13:48:51.743Z,2.37
2018-12-11T13:51:19.210Z,2.10
2018-12-11T13:53:46.651Z,1.67
2018-12-11T13:56:14.121Z,1.50
2018-12-11T13:58:41.558Z,1.77
2018-12-11T14:01:09.009Z,2.10
2018-12-11T14:03:36.441Z,2.90
2018-12-11T14:06:03.907Z,1.20
2018-12-11T14:08:31.340Z,1.83
2018-12-11T14:10:58.788Z,1.87
2018-12-11T14:13:26.230Z,1.33
2018-12-11T14:15:53.688Z,1.73
2018-12-11T14:18:21.143Z,1.37
2018-12-11T14:20:48.573Z,2.03
2018-12-11T14:23:16.086Z,1.80
2018-12-11T14:25:43.531Z,1.50
2018-12-11T14:28:10.983Z,1.87
2018-12-11T14:30:38.433Z,2.02
2018-12-11T14:33:05.892Z,1.77
2018-12-11T14:35:33.406Z,1.53
2018-12-11T14:38:00.877Z,1.50
2018-12-11T14:40:28.315Z,2.20
2018-12-11T14:42:55.775Z,1.83
2018-12-11T14:45:23.226Z,1.33
2018-12-11T14:47:50.685Z,2.00
2018-12-11T14:50:18.129Z,1.53
2018-12-11T14:52:45.587Z,1.70
2018-12-11T14:55:13.045Z,2.30
2018-12-11T14:57:40.508Z,1.87
2018-12-11T15:00:08.509Z,2.07
2018-12-11T15:02:36.520Z,1.80
2018-12-11T15:05:05.601Z,1.93
2018-12-11T15:07:33.126Z,2.30
2018-12-11T15:10:00.578Z,1.50
2018-12-11T15:12:28.005Z,1.17
2018-12-11T15:14:55.460Z,1.53
2018-12-11T15:17:22.892Z,1.10
2018-12-11T15:19:50.335Z,1.67
2018-12-11T15:22:17.777Z,2.40
2018-12-11T15:24:45.234Z,1.90
2018-12-11T15:27:12.673Z,1.60
2018-12-11T15:29:40.759Z,1.65
2018-12-11T15:32:08.194Z,1.40
2018-12-11T15:34:35.680Z,1.60
2018-12-11T15:37:03.116Z,1.67
2018-12-11T15:39:35.810Z,2.10
2018-12-11T15:42:00.034Z,1.45
2018-12-11T15:44:27.479Z,1.40
2018-12-11T15:46:54.917Z,2.35
2018-12-11T15:49:22.428Z,1.90
2018-12-11T15:51:50.034Z,2.10
2018-12-11T15:54:17.558Z,2.00
2018-12-11T15:56:45.323Z,1.67
2018-12-11T15:59:12.761Z,1.45
2018-12-11T16:01:40.233Z,1.63
2018-12-11T16:04:07.673Z,1.37
2018-12-11T16:06:35.125Z,1.57
2018-12-11T16:09:04.543Z,1.60
2018-12-11T16:11:32.000Z,2.20
2018-12-11T16:13:59.444Z,1.70
2018-12-11T16:16:27.936Z,1.85
2018-12-11T16:18:55.752Z,1.57
2018-12-11T16:21:23.204Z,1.80
2018-12-11T16:23:50.638Z,2.92
2018-12-11T16:26:18.095Z,1.87
2018-12-11T16:28:46.019Z,1.50
2018-12-11T16:31:17.016Z,1.60
2018-12-11T16:33:44.459Z,2.10
2018-12-11T16:36:11.913Z,2.60
2018-12-11T16:38:39.362Z,2.53
2018-12-11T16:41:06.841Z,3.40
2018-12-11T16:43:34.274Z,2.40
2018-12-11T16:46:01.718Z,2.65
2018-12-11T16:48:29.172Z,2.00
2018-12-11T16:50:56.626Z,3.60
2018-12-11T16:53:24.100Z,2.20
2018-12-11T16:55:51.533Z,2.20
2018-12-11T16:58:18.991Z,3.47
2018-12-11T17:00:46.446Z,2.70
2018-12-11T17:03:13.910Z,2.23
2018-12-11T17:05:41.349Z,2.70
2018-12-11T17:08:08.805Z,3.00
2018-12-11T17:10:36.256Z,2.17
2018-12-11T17:13:03.700Z,2.60
2018-12-11T17:15:31.726Z,3.20
2018-12-11T17:17:59.182Z,2.87
2018-12-11T17:20:26.626Z,2.37
2018-12-11T17:22:54.071Z,2.83
2018-12-11T17:25:21.584Z,3.13
2018-12-11T17:27:49.164Z,3.30
2018-12-11T17:30:16.610Z,2.63
2018-12-11T17:32:44.125Z,3.67
2018-12-11T17:35:11.582Z,3.90
2018-12-11T17:37:39.036Z,2.93
2018-12-11T17:40:06.505Z,3.02
2018-12-11T17:42:33.936Z,2.95
2018-12-11T17:45:01.384Z,3.37
2018-12-11T17:47:28.826Z,3.40
2018-12-11T17:49:56.282Z,3.13
2018-12-11T17:52:23.735Z,3.23
2018-12-11T17:54:51.193Z,3.83
2018-12-11T17:57:18.629Z,3.90
2018-12-11T17:59:46.074Z,5.70
2018-12-11T18:02:15.523Z,2.83
2018-12-11T18:04:42.963Z,3.50
2018-12-11T18:07:10.414Z,3.87
2018-12-11T18:09:37.877Z,2.87
2018-12-11T18:12:05.324Z,3.62
2018-12-11T18:14:32.784Z,3.47
2018-12-11T18:17:00.250Z,4.70
2018-12-11T18:19:27.681Z,3.07
2018-12-11T18:21:55.138Z,3.70
2018-12-11T18:24:22.577Z,3.90
2018-12-11T18:26:50.025Z,4.42
2018-12-11T18:29:17.474Z,4.30
2018-12-11T18:31:44.925Z,4.27
2018-12-11T18:34:12.457Z,3.90
2018-12-11T18:36:40.093Z,5.43
2018-12-11T18:39:07.609Z,3.58
2018-12-11T18:41:35.245Z,5.23
2018-12-11T18:44:02.688Z,4.70
2018-12-11T18:46:30.142Z,4.40
2018-12-11T18:48:57.654Z,4.73
2018-12-11T18:51:25.093Z,4.07
2018-12-11T18:53:52.556Z,4.87
2018-12-11T18:56:20.014Z,3.80
2018-12-11T18:58:47.464Z,4.17
2018-12-11T19:01:14.910Z,4.37
2018-12-11T19:03:42.388Z,5.00
2018-12-11T19:06:09.821Z,5.13
2018-12-11T19:08:37.276Z,4.33
2018-12-11T19:11:04.720Z,4.90
2018-12-11T19:13:32.166Z,4.77
2018-12-11T19:15:59.635Z,4.87
2018-12-11T19:18:27.546Z,5.47
2018-12-11T19:20:54.989Z,6.70
2018-12-11T19:23:26.202Z,6.08
2018-12-11T19:25:53.827Z,3.57
2018-12-11T19:28:21.297Z,4.30
2018-12-11T19:30:48.739Z,6.37
2018-12-11T19:33:16.191Z,5.77
2018-12-11T19:35:43.634Z,5.55
2018-12-11T19:38:11.098Z,6.60
2018-12-11T19:40:41.214Z,7.17
2018-12-11T19:43:08.022Z,6.10
2018-12-11T19:45:35.464Z,7.60
2018-12-11T19:48:02.915Z,8.20
2018-12-11T19:50:30.381Z,6.28
2018-12-11T19:52:57.823Z,7.83
2018-12-11T19:55:25.283Z,7.53
2018-12-11T19:57:52.739Z,8.20
2018-12-11T20:00:20.207Z,9.10
2018-12-11T20:02:47.736Z,6.67
2018-12-11T20:05:15.185Z,8.75
2018-12-11T20:07:42.630Z,8.80
2018-12-11T20:10:15.806Z,8.03
2018-12-11T20:12:44.226Z,7.27
2018-12-11T20:15:11.785Z,9.40
2018-12-11T20:17:39.227Z,8.93
2018-12-11T20:20:07.466Z,8.00
2018-12-11T20:22:34.909Z,8.47
2018-12-11T20:25:02.370Z,8.30
2018-12-11T20:27:29.827Z,7.80
2018-12-11T20:29:57.406Z,7.77
2018-12-11T20:32:24.929Z,8.00
2018-12-11T20:34:52.378Z,7.80
2018-12-11T20:37:19.926Z,8.23
2018-12-11T20:39:47.745Z,8.43
2018-12-11T20:42:15.208Z,6.63
2018-12-11T20:44:42.665Z,9.03
2018-12-11T20:47:10.128Z,9.30
2018-12-11T20:49:37.580Z,9.50
2018-12-11T20:52:05.037Z,10.03
2018-12-11T20:54:33.692Z,10.80
2018-12-11T20:57:01.568Z,9.43
2018-12-11T20:59:29.024Z,9.65
2018-12-11T21:01:56.500Z,11.03
2018-12-11T21:04:23.946Z,9.70
2018-12-11T21:06:51.405Z,10.00
2018-12-11T21:09:18.836Z,8.83
2018-12-11T21:11:46.349Z,11.18
2018-12-11T21:14:13.838Z,10.47
2018-12-11T21:16:41.416Z,10.13
2018-12-11T21:19:09.367Z,12.17
2018-12-11T21:21:36.901Z,11.77
2018-12-11T21:24:04.850Z,10.70
2018-12-11T21:26:32.295Z,9.70
2018-12-11T21:28:59.752Z,11.57
2018-12-11T21:31:27.316Z,10.28
2018-12-11T21:33:54.778Z,9.88
2018-12-11T21:36:22.253Z,9.67
2018-12-11T21:38:49.721Z,10.90
2018-12-11T21:41:17.164Z,9.08
2018-12-11T21:43:44.631Z,11.60
2018-12-11T21:46:12.074Z,9.53
2018-12-11T21:48:39.537Z,10.70
2018-12-11T21:51:06.980Z,9.67
2018-12-11T21:53:34.457Z,12.00
2018-12-11T21:56:01.907Z,11.23
2018-12-11T21:58:29.376Z,7.80
2018-12-11T22:00:57.308Z,10.00
2018-12-11T22:03:25.139Z,10.40
2018-12-11T22:05:52.882Z,9.67
2018-12-11T22:08:20.330Z,10.20
2018-12-11T22:10:47.787Z,9.90
2018-12-11T22:13:15.239Z,9.00
2018-12-11T22:15:42.706Z,9.40
2018-12-11T22:18:10.168Z,9.30
2018-12-11T22:20:37.628Z,8.43
2018-12-11T22:23:05.079Z,10.20
2018-12-11T22:25:32.540Z,12.30
2018-12-11T22:27:59.982Z,11.08
2018-12-11T22:30:27.454Z,11.47
2018-12-11T22:32:55.022Z,11.70
2018-12-11T22:35:22.484Z,12.00
2018-12-11T22:37:49.931Z,8.90
2018-12-11T22:40:17.396Z,9.70
2018-12-11T22:42:44.860Z,9.70
2018-12-11T22:45:12.326Z,11.73
2018-12-11T22:47:39.783Z,13.10
2018-12-11T22:50:07.232Z,12.73
2018-12-11T22:52:34.700Z,10.93
2018-12-11T22:55:02.147Z,15.33
2018-12-11T22:57:29.615Z,12.03
2018-12-11T22:59:57.063Z,11.23
2018-12-11T23:02:24.821Z,11.93
2018-12-11T23:04:52.270Z,11.50
2018-12-11T23:07:19.840Z,14.07
2018-12-11T23:09:47.293Z,14.75
2018-12-11T23:12:14.775Z,11.67
2018-12-11T23:14:42.220Z,12.37
2018-12-11T23:17:09.676Z,12.97
2018-12-11T23:19:37.124Z,12.57
2018-12-11T23:22:04.598Z,11.00
2018-12-11T23:24:32.171Z,11.87
2018-12-11T23:26:59.629Z,11.47
2018-12-11T23:29:27.073Z,10.63
2018-12-11T23:31:54.541Z,14.27
2018-12-11T23:34:21.985Z,12.37
2018-12-11T23:36:49.442Z,12.77
2018-12-11T23:39:16.901Z,12.27
2018-12-11T23:41:44.345Z,12.83
2018-12-11T23:44:11.811Z,11.67
2018-12-11T23:46:39.250Z,13.35
2018-12-11T23:49:06.721Z,14.30
2018-12-11T23:51:34.177Z,14.03
2018-12-11T23:54:01.647Z,14.00
2018-12-11T23:56:29.101Z,11.90
2018-12-11T23:58:56.571Z,13.43
